SDM2212 UWKD-USTR
Flight info
| Callsign | SDM2212 |
|---|---|
| Flight time | 1h 18m |
| Altitude | 37000 |
| Route | RIMIP1G RIMIP L94 LOMBI P135 GIBUL P983 GINPA GINPA1P |
| Aircraft | B77W/H-SDE1E2E3FGHIJ2J3J4J5M1RWXY/LB1D1 |
Departure
| Time | 2026-04-25 03:42 |
|---|---|
| Airport | Kazan International Airport (UWKD) |
Arrival
| Time | 2026-04-25 05:01 |
|---|---|
| Airport | Roshchino International Airport (USTR) |
| Time | Latitude | Longitude | Altitude | Speed | Heading |
|---|---|---|---|---|---|
| 2026-04-25 03:22 | 55.60642 | 49.30139 | 409 ft | 0 kts | 34° |
| 2026-04-25 03:30 | 55.60632 | 49.30128 | 420 ft | 3 kts | 32° |
| 2026-04-25 03:30 | 55.60615 | 49.30110 | 420 ft | 3 kts | 25° |
| 2026-04-25 03:30 | 55.60596 | 49.30096 | 420 ft | 3 kts | 19° |
| 2026-04-25 03:30 | 55.60577 | 49.30086 | 420 ft | 3 kts | 12° |
| 2026-04-25 03:31 | 55.60557 | 49.30079 | 409 ft | 3 kts | 6° |
| 2026-04-25 03:31 | 55.60537 | 49.30076 | 415 ft | 3 kts | 5° |
| 2026-04-25 03:31 | 55.60518 | 49.30071 | 412 ft | 3 kts | 20° |
| 2026-04-25 03:31 | 55.60509 | 49.30065 | 420 ft | 0 kts | 34° |
| 2026-04-25 03:35 | 55.60512 | 49.30069 | 420 ft | 4 kts | 34° |
| 2026-04-25 03:35 | 55.60574 | 49.30074 | 409 ft | 12 kts | 329° |
| 2026-04-25 03:35 | 55.60625 | 49.29964 | 411 ft | 12 kts | 304° |
| 2026-04-25 03:35 | 55.60670 | 49.29847 | 411 ft | 12 kts | 304° |
| 2026-04-25 03:36 | 55.60716 | 49.29729 | 410 ft | 12 kts | 304° |
| 2026-04-25 03:36 | 55.60762 | 49.29611 | 411 ft | 12 kts | 304° |
| 2026-04-25 03:36 | 55.60808 | 49.29492 | 410 ft | 12 kts | 301° |
| 2026-04-25 03:36 | 55.60789 | 49.29399 | 410 ft | 9 kts | 218° |
| 2026-04-25 03:37 | 55.60723 | 49.29317 | 417 ft | 17 kts | 215° |
| 2026-04-25 03:37 | 55.60630 | 49.29202 | 409 ft | 15 kts | 214° |
| 2026-04-25 03:37 | 55.60577 | 49.29049 | 420 ft | 15 kts | 269° |
| 2026-04-25 03:37 | 55.60583 | 49.28859 | 416 ft | 15 kts | 274° |
| 2026-04-25 03:38 | 55.60591 | 49.28670 | 420 ft | 15 kts | 275° |
| 2026-04-25 03:38 | 55.60636 | 49.28501 | 412 ft | 15 kts | 304° |
| 2026-04-25 03:38 | 55.60697 | 49.28345 | 412 ft | 15 kts | 304° |
| 2026-04-25 03:38 | 55.60757 | 49.28189 | 412 ft | 15 kts | 304° |
| 2026-04-25 03:39 | 55.60818 | 49.28033 | 415 ft | 15 kts | 304° |
| 2026-04-25 03:39 | 55.60878 | 49.27878 | 421 ft | 15 kts | 304° |
| 2026-04-25 03:39 | 55.60939 | 49.27721 | 409 ft | 15 kts | 304° |
| 2026-04-25 03:39 | 55.60998 | 49.27567 | 411 ft | 15 kts | 304° |
| 2026-04-25 03:40 | 55.61059 | 49.27411 | 411 ft | 15 kts | 304° |
| 2026-04-25 03:40 | 55.61120 | 49.27253 | 409 ft | 15 kts | 304° |
| 2026-04-25 03:40 | 55.61180 | 49.27099 | 415 ft | 15 kts | 304° |
| 2026-04-25 03:40 | 55.61207 | 49.26947 | 421 ft | 13 kts | 252° |
| 2026-04-25 03:41 | 55.61142 | 49.26832 | 423 ft | 13 kts | 214° |
| 2026-04-25 03:41 | 55.61079 | 49.26769 | 418 ft | 7 kts | 189° |
| 2026-04-25 03:41 | 55.61035 | 49.26820 | 420 ft | 9 kts | 127° |
| 2026-04-25 03:41 | 55.61027 | 49.26838 | 409 ft | 2 kts | 125° |
| 2026-04-25 03:42 | 55.60957 | 49.27017 | 417 ft | 41 kts | 124° |
| 2026-04-25 03:42 | 55.60616 | 49.27902 | 413 ft | 131 kts | 124° |
| 2026-04-25 03:42 | 55.59958 | 49.29553 | 660 ft | 171 kts | 128° |
| 2026-04-25 03:42 | 55.59347 | 49.31137 | 1949 ft | 156 kts | 127° |
| 2026-04-25 03:43 | 55.58703 | 49.32846 | 2469 ft | 179 kts | 129° |
| 2026-04-25 03:43 | 55.57936 | 49.34805 | 2755 ft | 208 kts | 129° |
| 2026-04-25 03:43 | 55.57047 | 49.37066 | 3082 ft | 237 kts | 129° |
| 2026-04-25 03:43 | 55.56089 | 49.39504 | 3838 ft | 246 kts | 129° |
| 2026-04-25 03:44 | 55.55130 | 49.42061 | 4648 ft | 254 kts | 122° |
| 2026-04-25 03:44 | 55.54796 | 49.45210 | 5372 ft | 274 kts | 89° |
| 2026-04-25 03:44 | 55.55138 | 49.48601 | 6104 ft | 285 kts | 83° |
| 2026-04-25 03:44 | 55.55569 | 49.52001 | 6987 ft | 288 kts | 82° |
| 2026-04-25 03:45 | 55.56027 | 49.55463 | 7917 ft | 290 kts | 81° |
| 2026-04-25 03:45 | 55.56502 | 49.58952 | 8766 ft | 294 kts | 81° |
| 2026-04-25 03:45 | 55.56984 | 49.62492 | 9603 ft | 298 kts | 80° |
| 2026-04-25 03:45 | 55.57483 | 49.66160 | 10110 ft | 319 kts | 80° |
| 2026-04-25 03:46 | 55.57834 | 49.68762 | 10260 ft | 338 kts | 79° |
| 2026-04-25 03:46 | 55.58402 | 49.72979 | 10545 ft | 365 kts | 79° |
| 2026-04-25 03:46 | 55.59004 | 49.77416 | 11318 ft | 375 kts | 79° |
| 2026-04-25 03:46 | 55.59617 | 49.81940 | 12301 ft | 381 kts | 79° |
| 2026-04-25 03:47 | 55.60234 | 49.86523 | 13351 ft | 386 kts | 78° |
| 2026-04-25 03:47 | 55.60858 | 49.91170 | 14330 ft | 391 kts | 78° |
| 2026-04-25 03:47 | 55.61490 | 49.95901 | 15239 ft | 398 kts | 78° |
| 2026-04-25 03:47 | 55.62128 | 50.00699 | 16131 ft | 404 kts | 78° |
| 2026-04-25 03:48 | 55.62773 | 50.05572 | 17009 ft | 410 kts | 78° |
| 2026-04-25 03:48 | 55.63551 | 50.10452 | 17852 ft | 415 kts | 71° |
| 2026-04-25 03:48 | 55.64622 | 50.15238 | 18644 ft | 421 kts | 67° |
| 2026-04-25 03:48 | 55.65827 | 50.20011 | 19461 ft | 427 kts | 66° |
| 2026-04-25 03:49 | 55.67073 | 50.24813 | 20302 ft | 430 kts | 66° |
| 2026-04-25 03:49 | 55.68315 | 50.29660 | 21068 ft | 435 kts | 66° |
| 2026-04-25 03:49 | 55.69538 | 50.34527 | 21791 ft | 440 kts | 67° |
| 2026-04-25 03:49 | 55.70770 | 50.39542 | 22507 ft | 445 kts | 68° |
| 2026-04-25 03:50 | 55.71994 | 50.44609 | 23202 ft | 449 kts | 68° |
| 2026-04-25 03:50 | 55.73217 | 50.49729 | 23842 ft | 454 kts | 68° |
| 2026-04-25 03:50 | 55.74454 | 50.54933 | 24463 ft | 459 kts | 69° |
| 2026-04-25 03:50 | 55.75696 | 50.60184 | 25047 ft | 464 kts | 69° |
| 2026-04-25 03:51 | 55.76954 | 50.65508 | 25589 ft | 470 kts | 69° |
| 2026-04-25 03:51 | 55.78224 | 50.70888 | 26110 ft | 476 kts | 69° |
| 2026-04-25 03:51 | 55.79510 | 50.76349 | 26630 ft | 480 kts | 69° |
| 2026-04-25 03:51 | 55.80805 | 50.81859 | 27099 ft | 485 kts | 69° |
| 2026-04-25 03:52 | 55.82111 | 50.87425 | 27571 ft | 491 kts | 69° |
| 2026-04-25 03:52 | 55.83426 | 50.93054 | 28031 ft | 495 kts | 69° |
| 2026-04-25 03:52 | 55.84754 | 50.98752 | 28468 ft | 500 kts | 69° |
| 2026-04-25 03:52 | 55.86091 | 51.04499 | 28894 ft | 504 kts | 70° |
| 2026-04-25 03:53 | 55.87437 | 51.10309 | 29285 ft | 508 kts | 70° |
| 2026-04-25 03:53 | 55.88773 | 51.16080 | 29653 ft | 512 kts | 70° |
| 2026-04-25 03:53 | 55.90133 | 51.21969 | 29989 ft | 515 kts | 70° |
| 2026-04-25 03:53 | 55.91500 | 51.27909 | 30389 ft | 517 kts | 70° |
| 2026-04-25 03:54 | 55.92862 | 51.33846 | 30856 ft | 517 kts | 70° |
| 2026-04-25 03:54 | 55.94219 | 51.39776 | 31334 ft | 517 kts | 70° |
| 2026-04-25 03:54 | 55.95574 | 51.45717 | 31798 ft | 516 kts | 70° |
| 2026-04-25 03:54 | 55.96924 | 51.51653 | 32236 ft | 516 kts | 70° |
| 2026-04-25 03:55 | 55.98270 | 51.57591 | 32655 ft | 516 kts | 70° |
| 2026-04-25 03:55 | 55.99621 | 51.63562 | 33052 ft | 517 kts | 70° |
| 2026-04-25 03:55 | 56.00948 | 51.69442 | 33466 ft | 516 kts | 70° |
| 2026-04-25 03:55 | 56.02266 | 51.75415 | 33914 ft | 514 kts | 73° |
| 2026-04-25 03:56 | 56.03294 | 51.81523 | 34261 ft | 513 kts | 79° |
| 2026-04-25 03:56 | 56.04016 | 51.87755 | 34595 ft | 511 kts | 84° |
| 2026-04-25 03:56 | 56.04408 | 51.94057 | 34953 ft | 508 kts | 89° |
| 2026-04-25 03:56 | 56.04610 | 52.00376 | 35311 ft | 507 kts | 90° |
| 2026-04-25 03:57 | 56.04788 | 52.06687 | 35654 ft | 507 kts | 90° |
| 2026-04-25 03:57 | 56.04969 | 52.13000 | 35984 ft | 507 kts | 90° |
| 2026-04-25 03:57 | 56.05159 | 52.19227 | 36276 ft | 508 kts | 89° |
| 2026-04-25 03:57 | 56.05360 | 52.25557 | 36370 ft | 512 kts | 89° |
| 2026-04-25 03:58 | 56.05777 | 52.38313 | 36424 ft | 512 kts | 89° |
| 2026-04-25 03:58 | 56.06179 | 52.50959 | 36426 ft | 506 kts | 89° |
| 2026-04-25 03:59 | 56.06558 | 52.63516 | 36428 ft | 505 kts | 90° |
| 2026-04-25 03:59 | 56.06902 | 52.76074 | 36435 ft | 504 kts | 90° |
| 2026-04-25 04:00 | 56.07224 | 52.88609 | 36438 ft | 504 kts | 90° |
| 2026-04-25 04:00 | 56.07535 | 53.01084 | 36442 ft | 505 kts | 90° |
| 2026-04-25 04:01 | 56.07840 | 53.13672 | 36445 ft | 506 kts | 90° |
| 2026-04-25 04:01 | 56.08134 | 53.26298 | 36452 ft | 508 kts | 90° |
| 2026-04-25 04:02 | 56.08413 | 53.38957 | 36463 ft | 509 kts | 91° |
| 2026-04-25 04:02 | 56.08684 | 53.51650 | 36462 ft | 510 kts | 91° |
| 2026-04-25 04:03 | 56.08933 | 53.64286 | 36470 ft | 511 kts | 91° |
| 2026-04-25 04:03 | 56.09152 | 53.77017 | 36481 ft | 511 kts | 91° |
| 2026-04-25 04:04 | 56.09360 | 53.89751 | 36489 ft | 512 kts | 91° |
| 2026-04-25 04:04 | 56.09557 | 54.02509 | 36495 ft | 512 kts | 92° |
| 2026-04-25 04:05 | 56.09742 | 54.15276 | 36510 ft | 512 kts | 92° |
| 2026-04-25 04:05 | 56.09914 | 54.27871 | 36508 ft | 504 kts | 92° |
| 2026-04-25 04:06 | 56.10390 | 54.40298 | 36515 ft | 501 kts | 84° |
| 2026-04-25 04:06 | 56.11502 | 54.52637 | 36528 ft | 502 kts | 84° |
| 2026-04-25 04:07 | 56.12631 | 54.65000 | 36531 ft | 503 kts | 84° |
| 2026-04-25 04:07 | 56.13710 | 54.77377 | 36537 ft | 503 kts | 85° |
| 2026-04-25 04:08 | 56.14765 | 54.89820 | 36545 ft | 504 kts | 85° |
| 2026-04-25 04:08 | 56.15805 | 55.02277 | 36544 ft | 505 kts | 85° |
| 2026-04-25 04:09 | 56.16830 | 55.14686 | 36565 ft | 506 kts | 85° |
| 2026-04-25 04:09 | 56.17852 | 55.27191 | 36552 ft | 507 kts | 86° |
| 2026-04-25 04:10 | 56.18862 | 55.39728 | 36564 ft | 507 kts | 86° |
| 2026-04-25 04:10 | 56.19861 | 55.52272 | 36562 ft | 508 kts | 86° |
| 2026-04-25 04:11 | 56.21339 | 55.71125 | 36566 ft | 508 kts | 86° |
| 2026-04-25 04:12 | 56.22312 | 55.83715 | 36574 ft | 509 kts | 87° |
| 2026-04-25 04:12 | 56.23275 | 55.96324 | 36576 ft | 509 kts | 87° |
| 2026-04-25 04:13 | 56.24228 | 56.08956 | 36613 ft | 509 kts | 87° |
| 2026-04-25 04:13 | 56.25161 | 56.21508 | 36627 ft | 510 kts | 87° |
| 2026-04-25 04:14 | 56.26086 | 56.34162 | 36634 ft | 510 kts | 87° |
| 2026-04-25 04:14 | 56.27000 | 56.46841 | 36639 ft | 510 kts | 87° |
| 2026-04-25 04:15 | 56.27901 | 56.59488 | 36636 ft | 509 kts | 88° |
| 2026-04-25 04:15 | 56.28789 | 56.72147 | 36641 ft | 509 kts | 88° |
| 2026-04-25 04:16 | 56.29661 | 56.84783 | 36643 ft | 508 kts | 88° |
| 2026-04-25 04:16 | 56.30520 | 56.97409 | 36645 ft | 507 kts | 88° |
| 2026-04-25 04:17 | 56.31367 | 57.10021 | 36647 ft | 507 kts | 88° |
| 2026-04-25 04:17 | 56.32198 | 57.22614 | 36645 ft | 506 kts | 88° |
| 2026-04-25 04:18 | 56.33016 | 57.35152 | 36650 ft | 506 kts | 88° |
| 2026-04-25 04:18 | 56.33821 | 57.47752 | 36645 ft | 506 kts | 89° |
| 2026-04-25 04:19 | 56.34605 | 57.60362 | 36649 ft | 506 kts | 89° |
| 2026-04-25 04:19 | 56.35378 | 57.72935 | 36648 ft | 507 kts | 89° |
| 2026-04-25 04:20 | 56.36141 | 57.85578 | 36649 ft | 508 kts | 89° |
| 2026-04-25 04:20 | 56.36895 | 57.98270 | 36654 ft | 508 kts | 89° |
| 2026-04-25 04:21 | 56.37638 | 58.10982 | 36657 ft | 509 kts | 89° |
| 2026-04-25 04:21 | 56.38367 | 58.23699 | 36651 ft | 509 kts | 90° |
| 2026-04-25 04:22 | 56.39083 | 58.36350 | 36657 ft | 509 kts | 90° |
| 2026-04-25 04:22 | 56.39780 | 58.49058 | 36666 ft | 509 kts | 90° |
| 2026-04-25 04:23 | 56.40457 | 58.61762 | 36662 ft | 508 kts | 90° |
| 2026-04-25 04:23 | 56.41125 | 58.74477 | 36682 ft | 508 kts | 90° |
| 2026-04-25 04:24 | 56.41779 | 58.87193 | 36671 ft | 508 kts | 90° |
| 2026-04-25 04:24 | 56.42424 | 58.99918 | 36692 ft | 508 kts | 90° |
| 2026-04-25 04:25 | 56.43723 | 59.12575 | 36678 ft | 517 kts | 79° |
| 2026-04-25 04:25 | 56.46264 | 59.24810 | 36683 ft | 524 kts | 69° |
| 2026-04-25 04:26 | 56.49419 | 59.36727 | 36686 ft | 525 kts | 68° |
| 2026-04-25 04:26 | 56.52571 | 59.48659 | 36684 ft | 525 kts | 69° |
| 2026-04-25 04:27 | 56.55636 | 59.60578 | 36675 ft | 525 kts | 69° |
| 2026-04-25 04:27 | 56.58702 | 59.72647 | 36688 ft | 526 kts | 69° |
| 2026-04-25 04:28 | 56.61758 | 59.84714 | 36692 ft | 526 kts | 69° |
| 2026-04-25 04:28 | 56.64811 | 59.96821 | 36698 ft | 527 kts | 69° |
| 2026-04-25 04:29 | 56.67872 | 60.08941 | 36689 ft | 527 kts | 69° |
| 2026-04-25 04:29 | 56.70921 | 60.21075 | 36690 ft | 527 kts | 69° |
| 2026-04-25 04:30 | 56.73927 | 60.33147 | 36696 ft | 526 kts | 70° |
| 2026-04-25 04:30 | 56.76897 | 60.45329 | 36693 ft | 525 kts | 70° |
| 2026-04-25 04:31 | 56.79850 | 60.57503 | 36696 ft | 524 kts | 70° |
| 2026-04-25 04:31 | 56.82294 | 60.67620 | 36702 ft | 524 kts | 70° |
| 2026-04-25 04:32 | 56.85227 | 60.79795 | 36690 ft | 523 kts | 70° |
| 2026-04-25 04:32 | 56.88174 | 60.91954 | 36699 ft | 522 kts | 70° |
| 2026-04-25 04:33 | 56.91074 | 61.04159 | 36695 ft | 523 kts | 70° |
| 2026-04-25 04:33 | 56.93912 | 61.16411 | 36692 ft | 523 kts | 70° |
| 2026-04-25 04:34 | 56.96786 | 61.28614 | 36695 ft | 524 kts | 70° |
| 2026-04-25 04:34 | 56.99699 | 61.40884 | 36691 ft | 524 kts | 70° |
| 2026-04-25 04:35 | 57.02600 | 61.53180 | 36694 ft | 524 kts | 70° |
| 2026-04-25 04:35 | 57.05455 | 61.65379 | 36689 ft | 523 kts | 70° |
| 2026-04-25 04:36 | 57.08310 | 61.77679 | 36694 ft | 523 kts | 70° |
| 2026-04-25 04:36 | 57.11157 | 61.90010 | 36688 ft | 523 kts | 70° |
| 2026-04-25 04:37 | 57.13922 | 62.02388 | 36676 ft | 520 kts | 75° |
| 2026-04-25 04:37 | 57.14996 | 62.08711 | 36510 ft | 511 kts | 78° |
| 2026-04-25 04:37 | 57.15958 | 62.14972 | 36044 ft | 506 kts | 78° |
| 2026-04-25 04:37 | 57.16888 | 62.21271 | 34981 ft | 515 kts | 79° |
| 2026-04-25 04:38 | 57.17819 | 62.27625 | 34046 ft | 522 kts | 80° |
| 2026-04-25 04:38 | 57.18780 | 62.34078 | 33383 ft | 521 kts | 80° |
| 2026-04-25 04:38 | 57.19746 | 62.40472 | 32904 ft | 516 kts | 80° |
| 2026-04-25 04:38 | 57.20714 | 62.46813 | 32430 ft | 510 kts | 80° |
| 2026-04-25 04:39 | 57.21675 | 62.53092 | 31907 ft | 506 kts | 80° |
| 2026-04-25 04:39 | 57.22625 | 62.59316 | 31385 ft | 502 kts | 80° |
| 2026-04-25 04:39 | 57.23564 | 62.65506 | 30860 ft | 499 kts | 81° |
| 2026-04-25 04:39 | 57.24493 | 62.71651 | 30356 ft | 495 kts | 81° |
| 2026-04-25 04:40 | 57.25412 | 62.77758 | 29856 ft | 491 kts | 81° |
| 2026-04-25 04:40 | 57.26319 | 62.83815 | 29359 ft | 488 kts | 81° |
| 2026-04-25 04:40 | 57.27218 | 62.89845 | 28849 ft | 484 kts | 81° |
| 2026-04-25 04:40 | 57.28106 | 62.95820 | 28362 ft | 481 kts | 81° |
| 2026-04-25 04:41 | 57.28988 | 63.01771 | 27894 ft | 477 kts | 81° |
| 2026-04-25 04:41 | 57.29845 | 63.07590 | 27424 ft | 473 kts | 81° |
| 2026-04-25 04:41 | 57.30706 | 63.13452 | 26959 ft | 469 kts | 81° |
| 2026-04-25 04:41 | 57.31556 | 63.19258 | 26487 ft | 466 kts | 81° |
| 2026-04-25 04:42 | 57.32395 | 63.25022 | 26019 ft | 462 kts | 81° |
| 2026-04-25 04:42 | 57.33229 | 63.30760 | 25555 ft | 459 kts | 81° |
| 2026-04-25 04:42 | 57.34054 | 63.36456 | 25075 ft | 456 kts | 81° |
| 2026-04-25 04:42 | 57.34871 | 63.42119 | 24613 ft | 453 kts | 81° |
| 2026-04-25 04:43 | 57.35677 | 63.47725 | 24157 ft | 449 kts | 81° |
| 2026-04-25 04:43 | 57.36479 | 63.53313 | 23677 ft | 447 kts | 81° |
| 2026-04-25 04:43 | 57.37272 | 63.58857 | 23228 ft | 443 kts | 81° |
| 2026-04-25 04:43 | 57.38056 | 63.64369 | 22811 ft | 440 kts | 81° |
| 2026-04-25 04:44 | 57.38790 | 63.69757 | 22378 ft | 433 kts | 84° |
| 2026-04-25 04:44 | 57.39112 | 63.75294 | 21881 ft | 422 kts | 96° |
| 2026-04-25 04:44 | 57.38955 | 63.80667 | 21431 ft | 412 kts | 104° |
| 2026-04-25 04:44 | 57.38413 | 63.85732 | 21025 ft | 400 kts | 113° |
| 2026-04-25 04:45 | 57.37686 | 63.90686 | 20593 ft | 397 kts | 113° |
| 2026-04-25 04:45 | 57.36957 | 63.95632 | 20149 ft | 395 kts | 113° |
| 2026-04-25 04:45 | 57.36254 | 64.00469 | 19524 ft | 382 kts | 112° |
| 2026-04-25 04:45 | 57.35566 | 64.05217 | 18582 ft | 381 kts | 112° |
| 2026-04-25 04:46 | 57.34879 | 64.09954 | 17640 ft | 380 kts | 112° |
| 2026-04-25 04:46 | 57.34199 | 64.14665 | 16785 ft | 376 kts | 111° |
| 2026-04-25 04:46 | 57.33528 | 64.19325 | 16033 ft | 376 kts | 111° |
| 2026-04-25 04:46 | 57.32851 | 64.23998 | 15616 ft | 374 kts | 111° |
| 2026-04-25 04:47 | 57.32191 | 64.28578 | 15232 ft | 361 kts | 111° |
| 2026-04-25 04:47 | 57.31548 | 64.33023 | 14476 ft | 356 kts | 111° |
| 2026-04-25 04:47 | 57.30919 | 64.37358 | 14023 ft | 341 kts | 111° |
| 2026-04-25 04:47 | 57.30316 | 64.41510 | 13608 ft | 328 kts | 111° |
| 2026-04-25 04:48 | 57.29739 | 64.45466 | 13229 ft | 318 kts | 111° |
| 2026-04-25 04:48 | 57.29152 | 64.49445 | 12838 ft | 316 kts | 111° |
| 2026-04-25 04:48 | 57.28635 | 64.53398 | 12476 ft | 327 kts | 104° |
| 2026-04-25 04:48 | 57.28400 | 64.57776 | 12091 ft | 354 kts | 98° |
| 2026-04-25 04:49 | 57.28286 | 64.62392 | 11632 ft | 362 kts | 96° |
| 2026-04-25 04:49 | 57.28181 | 64.67048 | 11179 ft | 361 kts | 97° |
| 2026-04-25 04:49 | 57.28043 | 64.71675 | 10737 ft | 358 kts | 97° |
| 2026-04-25 04:49 | 57.27878 | 64.76254 | 10289 ft | 355 kts | 97° |
| 2026-04-25 04:50 | 57.27705 | 64.80730 | 10115 ft | 344 kts | 97° |
| 2026-04-25 04:50 | 57.27463 | 64.84957 | 9930 ft | 316 kts | 108° |
| 2026-04-25 04:50 | 57.26612 | 64.88434 | 9814 ft | 283 kts | 130° |
| 2026-04-25 04:50 | 57.25403 | 64.91081 | 9692 ft | 259 kts | 137° |
| 2026-04-25 04:51 | 57.24209 | 64.93472 | 9478 ft | 253 kts | 138° |
| 2026-04-25 04:51 | 57.22965 | 64.95914 | 9219 ft | 268 kts | 137° |
| 2026-04-25 04:51 | 57.21669 | 64.98459 | 8925 ft | 281 kts | 137° |
| 2026-04-25 04:51 | 57.20325 | 65.01113 | 8561 ft | 285 kts | 136° |
| 2026-04-25 04:52 | 57.18975 | 65.03782 | 8246 ft | 284 kts | 136° |
| 2026-04-25 04:52 | 57.17632 | 65.06442 | 7888 ft | 283 kts | 136° |
| 2026-04-25 04:52 | 57.16296 | 65.09094 | 7357 ft | 278 kts | 136° |
| 2026-04-25 04:52 | 57.14999 | 65.11676 | 6944 ft | 273 kts | 136° |
| 2026-04-25 04:53 | 57.13715 | 65.14224 | 6654 ft | 270 kts | 136° |
| 2026-04-25 04:53 | 57.12435 | 65.16755 | 6334 ft | 269 kts | 136° |
| 2026-04-25 04:53 | 57.11164 | 65.19272 | 6009 ft | 268 kts | 136° |
| 2026-04-25 04:53 | 57.09897 | 65.21776 | 5701 ft | 267 kts | 136° |
| 2026-04-25 04:54 | 57.08632 | 65.24274 | 5390 ft | 266 kts | 136° |
| 2026-04-25 04:54 | 57.07375 | 65.26756 | 5081 ft | 264 kts | 135° |
| 2026-04-25 04:54 | 57.06139 | 65.29196 | 4786 ft | 264 kts | 135° |
| 2026-04-25 04:54 | 57.04890 | 65.31654 | 4475 ft | 262 kts | 135° |
| 2026-04-25 04:55 | 57.03646 | 65.34098 | 4171 ft | 261 kts | 135° |
| 2026-04-25 04:55 | 57.02428 | 65.36491 | 3852 ft | 250 kts | 135° |
| 2026-04-25 04:55 | 57.01381 | 65.38942 | 3552 ft | 239 kts | 116° |
| 2026-04-25 04:55 | 57.01120 | 65.41852 | 3311 ft | 229 kts | 82° |
| 2026-04-25 04:56 | 57.01616 | 65.44583 | 3325 ft | 230 kts | 63° |
| 2026-04-25 04:56 | 57.02587 | 65.46919 | 3291 ft | 231 kts | 46° |
| 2026-04-25 04:56 | 57.03705 | 65.48935 | 3189 ft | 225 kts | 44° |
| 2026-04-25 04:56 | 57.04808 | 65.50891 | 3086 ft | 215 kts | 45° |
| 2026-04-25 04:57 | 57.05963 | 65.52494 | 2902 ft | 203 kts | 19° |
| 2026-04-25 04:57 | 57.07307 | 65.52543 | 2884 ft | 199 kts | 339° |
| 2026-04-25 04:57 | 57.08484 | 65.51232 | 2737 ft | 198 kts | 321° |
| 2026-04-25 04:57 | 57.09544 | 65.49674 | 2456 ft | 192 kts | 320° |
| 2026-04-25 04:58 | 57.10513 | 65.48058 | 2200 ft | 183 kts | 316° |
| 2026-04-25 04:58 | 57.11378 | 65.46470 | 1987 ft | 170 kts | 315° |
| 2026-04-25 04:58 | 57.12184 | 65.44980 | 1743 ft | 158 kts | 315° |
| 2026-04-25 04:58 | 57.12922 | 65.43609 | 1552 ft | 146 kts | 315° |
| 2026-04-25 04:59 | 57.13641 | 65.42273 | 1404 ft | 147 kts | 315° |
| 2026-04-25 04:59 | 57.14363 | 65.40934 | 1170 ft | 147 kts | 315° |
| 2026-04-25 04:59 | 57.15073 | 65.39620 | 984 ft | 145 kts | 315° |
| 2026-04-25 04:59 | 57.15780 | 65.38300 | 796 ft | 145 kts | 314° |
| 2026-04-25 05:00 | 57.16495 | 65.36990 | 619 ft | 145 kts | 315° |
| 2026-04-25 05:00 | 57.17198 | 65.35682 | 400 ft | 145 kts | 315° |
| 2026-04-25 05:00 | 57.17889 | 65.34399 | 353 ft | 129 kts | 315° |
| 2026-04-25 05:00 | 57.18390 | 65.33469 | 354 ft | 70 kts | 315° |
| 2026-04-25 05:01 | 57.18517 | 65.33253 | 352 ft | 14 kts | 341° |
| 2026-04-25 05:01 | 57.18582 | 65.33297 | 344 ft | 10 kts | 38° |
| 2026-04-25 05:01 | 57.18615 | 65.33408 | 345 ft | 10 kts | 82° |
| 2026-04-25 05:01 | 57.18617 | 65.33453 | 347 ft | 0 kts | 86° |
| 2026-04-25 05:02 | 57.18617 | 65.33457 | 345 ft | 4 kts | 86° |
| 2026-04-25 05:02 | 57.18595 | 65.33638 | 345 ft | 18 kts | 127° |
| 2026-04-25 05:03 | 57.18512 | 65.33795 | 355 ft | 15 kts | 135° |
| 2026-04-25 05:03 | 57.18438 | 65.33933 | 351 ft | 15 kts | 135° |
| 2026-04-25 05:03 | 57.18364 | 65.34071 | 356 ft | 15 kts | 135° |
| 2026-04-25 05:03 | 57.18290 | 65.34208 | 354 ft | 15 kts | 135° |
| 2026-04-25 05:04 | 57.18218 | 65.34341 | 356 ft | 11 kts | 135° |
| 2026-04-25 05:04 | 57.18163 | 65.34443 | 352 ft | 11 kts | 135° |
| 2026-04-25 05:04 | 57.18125 | 65.34524 | 355 ft | 8 kts | 121° |
| 2026-04-25 05:04 | 57.18124 | 65.34628 | 355 ft | 9 kts | 71° |
| 2026-04-25 05:05 | 57.18132 | 65.34675 | 348 ft | 0 kts | 74° |